Time;durP1;ratioP1;P1;durP2;ratioP2;P2;SDS_P1;SDS_P2;PMS_P1;PMS_P2;Temp;Humidity;BMP_temperature;BMP_pressure;BME280_temperature;BME280_humidity;BME280_pressure;Samples;Min_cycle;Max_cycle;Signal;HPM_P1;HPM_P2
2022/06/21 00:00:38;;;;;;;4.37;2.23;;;14.30;99.90;;;;;;5082834;28;20452;-81
2022/06/21 00:03:11;;;;;;;3.97;2.20;;;14.30;99.90;;;;;;5066834;28;20480;-80
2022/06/21 00:05:40;;;;;;;3.97;2.80;;;14.30;99.90;;;;;;5067454;28;20457;-81
2022/06/21 00:08:12;;;;;;;6.00;2.50;;;14.30;99.90;;;;;;5065720;28;20496;-81
2022/06/21 00:10:40;;;;;;;3.80;2.40;;;14.30;99.90;;;;;;5063429;28;20510;-81
2022/06/21 00:13:12;;;;;;;4.70;2.57;;;14.20;99.90;;;;;;5078367;28;20451;-82
2022/06/21 00:15:44;;;;;;;3.77;2.40;;;14.20;99.90;;;;;;5077520;28;20485;-80
2022/06/21 00:18:15;;;;;;;5.13;2.70;;;14.20;99.90;;;;;;5078901;28;21032;-80
2022/06/21 00:20:43;;;;;;;4.43;1.90;;;14.10;99.90;;;;;;5082278;28;20455;-81
2022/06/21 00:23:15;;;;;;;6.23;2.53;;;14.10;99.90;;;;;;5065576;28;20480;-80
2022/06/21 00:25:42;;;;;;;5.20;2.73;;;14.10;99.90;;;;;;5064737;28;20457;-81
2022/06/21 00:28:09;;;;;;;5.90;2.83;;;14.00;99.90;;;;;;5066389;28;21018;-82
2022/06/21 00:30:39;;;;;;;3.30;2.17;;;14.00;99.90;;;;;;5061441;28;20481;-81
2022/06/21 00:33:12;;;;;;;4.57;2.00;;;14.00;99.90;;;;;;5073146;28;20494;-80
2022/06/21 00:35:41;;;;;;;5.37;3.10;;;13.90;99.90;;;;;;5075463;28;20460;-80
2022/06/21 00:38:12;;;;;;;4.33;2.60;;;14.00;99.90;;;;;;5062034;28;20482;-82
2022/06/21 00:40:39;;;;;;;3.20;2.40;;;13.90;99.90;;;;;;5063274;28;20453;-82
2022/06/21 00:43:10;;;;;;;6.03;2.60;;;13.90;99.90;;;;;;5077771;28;20490;-81
2022/06/21 00:45:40;;;;;;;4.30;2.10;;;13.90;99.90;;;;;;5080110;28;20461;-82
2022/06/21 00:48:14;;;;;;;5.37;2.53;;;13.80;99.90;;;;;;5061384;28;20484;-81
2022/06/21 00:50:45;;;;;;;3.27;2.27;;;13.80;99.90;;;;;;5061578;28;20457;-80
2022/06/21 00:53:24;;;;;;;4.83;2.20;;;13.80;99.90;;;;;;5076991;28;20995;-81
2022/06/21 00:55:55;;;;;;;3.93;2.40;;;13.70;99.90;;;;;;5078188;28;20487;-82
2022/06/21 00:58:25;;;;;;;3.97;2.63;;;13.70;99.90;;;;;;5080669;28;20481;-81
2022/06/21 01:00:57;;;;;;;5.17;2.43;;;13.60;99.90;;;;;;5083377;28;20449;-80
2022/06/21 01:03:42;;;;;;;5.33;2.87;;;13.60;99.90;;;;;;5067998;28;20958;-81
2022/06/21 01:06:13;;;;;;;3.97;2.47;;;13.50;99.90;;;;;;5075928;28;20469;-82
2022/06/21 01:08:49;;;;;;;5.13;3.10;;;13.50;99.90;;;;;;5080640;28;20487;-82
2022/06/21 01:11:24;;;;;;;4.73;3.03;;;13.50;99.90;;;;;;5083005;28;20978;-81
2022/06/21 01:13:54;;;;;;;5.00;2.60;;;13.50;99.90;;;;;;5066833;28;20487;-82
2022/06/21 01:16:24;;;;;;;6.83;2.87;;;13.50;99.90;;;;;;5074524;28;20477;-79
2022/06/21 01:18:52;;;;;;;4.97;2.27;;;13.50;99.90;;;;;;5069002;28;20451;-82
2022/06/21 01:21:21;;;;;;;8.70;3.00;;;13.50;99.90;;;;;;5067537;28;20459;-82
2022/06/21 01:24:01;;;;;;;4.23;2.50;;;13.40;99.90;;;;;;5082748;28;20506;-82
2022/06/21 01:26:41;;;;;;;3.50;2.20;;;13.40;99.90;;;;;;5078160;28;20478;-81
2022/06/21 01:29:12;;;;;;;4.20;3.10;;;13.40;99.90;;;;;;5071968;28;20505;-81
2022/06/21 01:31:39;;;;;;;5.17;2.67;;;13.30;99.90;;;;;;5087101;28;20490;-80
2022/06/21 01:34:10;;;;;;;3.90;2.20;;;13.30;99.90;;;;;;5067601;28;20448;-81
2022/06/21 01:36:37;;;;;;;3.80;2.40;;;13.30;99.90;;;;;;5077033;28;20467;-82
2022/06/21 01:39:07;;;;;;;3.37;2.47;;;13.20;99.90;;;;;;5069854;28;21010;-81
2022/06/21 01:41:41;;;;;;;6.73;3.10;;;13.20;99.90;;;;;;5077770;28;20461;-82
2022/06/21 01:44:12;;;;;;;7.13;2.47;;;13.20;99.90;;;;;;5086702;28;20518;-81
2022/06/21 01:46:39;;;;;;;3.23;2.50;;;13.20;99.90;;;;;;5082537;28;20474;-81
2022/06/21 01:49:08;;;;;;;7.47;2.70;;;13.20;99.90;;;;;;5086892;28;20478;-82
2022/06/21 01:51:41;;;;;;;3.80;2.80;;;13.20;99.90;;;;;;5073467;28;20475;-82
2022/06/21 01:54:11;;;;;;;6.17;3.30;;;13.10;99.90;;;;;;5066606;28;20441;-82
2022/06/21 01:56:42;;;;;;;5.60;3.17;;;13.10;99.90;;;;;;5069188;28;20475;-81
2022/06/21 01:59:13;;;;;;;3.70;3.03;;;13.20;99.90;;;;;;5066763;28;20453;-81
2022/06/21 02:01:44;;;;;;;5.83;2.30;;;13.10;99.90;;;;;;5078472;28;20490;-80
2022/06/21 02:04:13;;;;;;;6.30;2.40;;;13.10;99.90;;;;;;5085055;28;20588;-80
2022/06/21 02:06:44;;;;;;;5.23;2.70;;;13.10;99.90;;;;;;5083395;28;20480;-80
2022/06/21 02:09:23;;;;;;;3.83;2.17;;;13.10;99.90;;;;;;5084505;28;20500;-81
2022/06/21 02:11:58;;;;;;;6.70;3.10;;;13.10;99.90;;;;;;5076294;28;20462;-80
2022/06/21 02:14:31;;;;;;;4.20;2.60;;;13.00;99.90;;;;;;5082789;28;20439;-82
2022/06/21 02:17:05;;;;;;;4.17;2.63;;;13.00;99.90;;;;;;5083917;28;20478;-82
2022/06/21 02:19:39;;;;;;;5.20;2.90;;;13.00;99.90;;;;;;5089908;22;20591;-79
2022/06/21 02:22:06;;;;;;;8.47;2.87;;;13.00;99.90;;;;;;5072270;28;21293;-79
2022/06/21 02:24:33;;;;;;;4.70;2.40;;;13.00;99.90;;;;;;5059434;28;20483;-77
2022/06/21 02:27:04;;;;;;;5.10;2.67;;;13.00;99.90;;;;;;5072557;28;20493;-78
2022/06/21 02:29:32;;;;;;;11.13;2.90;;;13.00;99.90;;;;;;5053720;28;20471;-79
2022/06/21 02:32:00;;;;;;;3.67;2.33;;;13.00;99.90;;;;;;5059103;28;20539;-78
2022/06/21 02:34:35;;;;;;;5.97;3.03;;;13.00;99.90;;;;;;5052199;28;20455;-79
2022/06/21 02:37:03;;;;;;;4.97;2.40;;;12.90;99.90;;;;;;5052858;28;20461;-77
2022/06/21 02:39:33;;;;;;;5.60;2.43;;;12.90;99.90;;;;;;5053828;28;20563;-78
2022/06/21 02:42:07;;;;;;;4.83;2.43;;;12.90;99.90;;;;;;5053511;28;20558;-77
2022/06/21 02:44:40;;;;;;;4.13;3.10;;;12.90;99.90;;;;;;5052962;28;20517;-77
2022/06/21 02:47:12;;;;;;;4.13;2.80;;;12.80;99.90;;;;;;5052350;28;20818;-78
2022/06/21 02:49:44;;;;;;;5.20;2.73;;;12.80;99.90;;;;;;5042872;28;20482;-77
2022/06/21 02:52:14;;;;;;;6.60;3.13;;;12.80;99.90;;;;;;5043519;28;20453;-76
2022/06/21 02:54:45;;;;;;;7.83;3.30;;;12.80;99.90;;;;;;5045065;28;20529;-79
2022/06/21 02:57:19;;;;;;;4.57;2.93;;;12.80;99.90;;;;;;5051737;28;20470;-76
2022/06/21 02:59:49;;;;;;;5.13;2.73;;;12.80;99.90;;;;;;5053678;28;20459;-77
2022/06/21 03:02:21;;;;;;;5.80;2.57;;;12.70;99.90;;;;;;5053371;28;20462;-78
2022/06/21 03:04:51;;;;;;;4.60;2.23;;;12.60;99.90;;;;;;5053549;28;20601;-78
2022/06/21 03:07:25;;;;;;;5.17;2.83;;;12.70;99.90;;;;;;5053029;28;20562;-78
2022/06/21 03:09:52;;;;;;;5.40;2.47;;;12.60;99.90;;;;;;5053285;28;20498;-77
2022/06/21 03:12:23;;;;;;;4.10;2.60;;;12.60;99.90;;;;;;5053349;28;20493;-78
2022/06/21 03:14:55;;;;;;;5.60;2.73;;;12.60;99.90;;;;;;5053269;28;20511;-79
2022/06/21 03:17:28;;;;;;;5.63;2.63;;;12.60;99.90;;;;;;5048331;28;20467;-79
2022/06/21 03:19:55;;;;;;;7.27;3.20;;;12.60;99.90;;;;;;5053182;28;20471;-79
2022/06/21 03:22:26;;;;;;;4.40;3.03;;;12.60;99.90;;;;;;5056464;28;20490;-77
2022/06/21 03:24:58;;;;;;;5.43;2.63;;;12.60;99.90;;;;;;5054931;28;20557;-76
2022/06/21 03:27:32;;;;;;;5.63;3.13;;;12.60;99.90;;;;;;5053186;28;20559;-78
2022/06/21 03:30:00;;;;;;;4.27;2.73;;;12.50;99.90;;;;;;5052697;28;20998;-77
2022/06/21 03:32:29;;;;;;;3.77;2.80;;;12.50;99.90;;;;;;5053022;28;20582;-76
2022/06/21 03:34:56;;;;;;;3.77;2.83;;;12.50;99.90;;;;;;5052298;28;20513;-76
2022/06/21 03:37:24;;;;;;;5.33;3.43;;;12.50;99.90;;;;;;5052787;28;20455;-77
2022/06/21 03:42:42;;;;;;;5.40;3.63;;;12.60;99.90;;;;;;5051982;28;20876;-79
2022/06/21 03:45:16;;;;;;;7.00;3.73;;;12.50;99.90;;;;;;5052364;28;20518;-78
2022/06/21 03:47:46;;;;;;;7.40;3.30;;;12.60;99.90;;;;;;5052196;28;20466;-77
2022/06/21 03:50:19;;;;;;;5.67;3.70;;;12.60;99.90;;;;;;5050934;28;20533;-78
2022/06/21 03:52:50;;;;;;;7.17;3.40;;;12.60;99.90;;;;;;5048441;28;20906;-78
2022/06/21 03:55:33;;;;;;;6.60;3.87;;;12.60;99.90;;;;;;5054084;28;20482;-79
2022/06/21 03:58:07;;;;;;;8.40;3.20;;;12.60;99.90;;;;;;5053729;28;20478;-79
2022/06/21 04:00:39;;;;;;;6.27;3.70;;;12.70;99.90;;;;;;5054023;28;21027;-79
2022/06/21 04:03:12;;;;;;;7.50;2.83;;;12.60;99.90;;;;;;5053402;28;20487;-80
2022/06/21 04:05:46;;;;;;;7.40;3.40;;;12.70;99.90;;;;;;5053363;28;20490;-80
2022/06/21 04:08:19;;;;;;;8.80;3.50;;;12.70;99.90;;;;;;5048876;28;20477;-79
2022/06/21 04:10:52;;;;;;;4.07;3.47;;;12.90;99.90;;;;;;5053179;28;20484;-78
2022/06/21 04:13:28;;;;;;;7.63;3.77;;;13.90;99.90;;;;;;5052540;28;20481;-80
2022/06/21 04:16:01;;;;;;;9.93;3.40;;;14.10;99.90;;;;;;5054288;28;20466;-78
2022/06/21 04:18:35;;;;;;;6.37;3.20;;;14.10;99.90;;;;;;5053440;28;20532;-78
2022/06/21 04:21:10;;;;;;;11.03;3.80;;;14.10;99.90;;;;;;5053034;28;20548;-78
2022/06/21 04:23:43;;;;;;;8.40;3.77;;;14.10;99.90;;;;;;5052831;28;20557;-78
2022/06/21 04:26:15;;;;;;;6.27;2.97;;;14.10;99.90;;;;;;5053017;28;20457;-79
2022/06/21 04:28:48;;;;;;;7.10;3.13;;;14.20;99.90;;;;;;5053355;28;20517;-79
2022/06/21 04:31:19;;;;;;;4.23;2.77;;;14.40;99.90;;;;;;5054925;28;20892;-78
2022/06/21 04:33:51;;;;;;;4.57;2.73;;;14.70;99.90;;;;;;5052018;28;20527;-80
2022/06/21 04:36:24;;;;;;;4.67;3.03;;;14.80;99.90;;;;;;5041865;28;20912;-78
2022/06/21 04:38:58;;;;;;;7.60;3.53;;;14.80;99.90;;;;;;5054224;28;20561;-79
2022/06/21 04:41:30;;;;;;;4.57;3.27;;;14.70;99.90;;;;;;5055766;28;20474;-79
2022/06/21 04:44:03;;;;;;;5.43;3.23;;;14.60;99.90;;;;;;5054507;28;20487;-79
2022/06/21 04:46:36;;;;;;;8.03;3.50;;;14.60;99.90;;;;;;5053987;28;20479;-77
2022/06/21 04:49:11;;;;;;;4.53;3.20;;;14.50;99.90;;;;;;5054469;28;20568;-79
2022/06/21 04:51:42;;;;;;;10.57;4.17;;;14.50;99.90;;;;;;5054443;28;20491;-78
2022/06/21 04:54:17;;;;;;;6.33;3.80;;;14.50;99.90;;;;;;5054889;28;20436;-78
2022/06/21 04:56:52;;;;;;;10.07;3.80;;;14.50;99.90;;;;;;5054753;28;20461;-78
2022/06/21 04:59:26;;;;;;;8.33;3.97;;;14.50;99.90;;;;;;5054705;28;20525;-78
2022/06/21 05:01:53;;;;;;;4.87;3.53;;;14.50;99.90;;;;;;5043779;28;20457;-80
2022/06/21 05:04:24;;;;;;;6.70;3.10;;;14.50;99.90;;;;;;5035013;28;20495;-78
2022/06/21 05:06:53;;;;;;;6.83;3.73;;;14.60;99.90;;;;;;5041404;28;20456;-80
2022/06/21 05:09:23;;;;;;;7.43;3.80;;;14.60;99.90;;;;;;5057971;28;20546;-80
2022/06/21 05:11:57;;;;;;;8.77;3.30;;;14.50;99.90;;;;;;5057479;28;20449;-80
2022/06/21 05:14:30;;;;;;;7.00;4.40;;;14.50;99.90;;;;;;5040024;28;20473;-78
2022/06/21 05:16:57;;;;;;;10.40;5.10;;;14.40;99.90;;;;;;5057426;28;20487;-79
2022/06/21 05:19:28;;;;;;;15.73;5.67;;;14.50;99.90;;;;;;5042601;28;20537;-80
2022/06/21 05:21:59;;;;;;;8.10;5.27;;;14.50;99.90;;;;;;5050252;28;21033;-78
2022/06/21 05:24:26;;;;;;;9.57;5.80;;;14.60;99.90;;;;;;5051790;28;20551;-78
2022/06/21 05:27:04;;;;;;;6.50;4.67;;;14.70;99.90;;;;;;5058211;28;20491;-79
2022/06/21 05:29:39;;;;;;;8.40;4.10;;;14.70;99.90;;;;;;5043934;28;20553;-79
2022/06/21 05:32:15;;;;;;;6.37;3.63;;;14.80;99.90;;;;;;5050937;28;20450;-80
2022/06/21 05:34:46;;;;;;;8.50;4.10;;;14.90;99.90;;;;;;5052364;28;20461;-79
2022/06/21 05:37:39;;;;;;;6.03;3.67;;;15.00;99.90;;;;;;5055644;28;20448;-81
2022/06/21 05:40:16;;;;;;;7.10;3.47;;;15.10;99.90;;;;;;5053044;28;20534;-79
2022/06/21 05:42:43;;;;;;;6.20;3.13;;;15.10;99.90;;;;;;5050485;28;20484;-79
2022/06/21 05:45:22;;;;;;;9.37;3.30;;;15.30;99.90;;;;;;5051041;28;20518;-79
2022/06/21 05:47:55;;;;;;;7.00;2.87;;;15.30;99.90;;;;;;5050676;28;20505;-83
2022/06/21 05:50:31;;;;;;;5.87;2.07;;;15.30;99.90;;;;;;5044992;28;20444;-81
2022/06/21 05:53:02;;;;;;;7.67;2.53;;;15.40;99.90;;;;;;5044137;28;20519;-81
2022/06/21 05:55:37;;;;;;;5.00;2.67;;;15.50;99.90;;;;;;5046523;28;20509;-79
2022/06/21 05:58:07;;;;;;;4.17;2.33;;;15.40;99.90;;;;;;5044633;28;20941;-79
2022/06/21 06:00:42;;;;;;;4.67;1.90;;;15.50;99.90;;;;;;5047064;28;20999;-79
2022/06/21 06:03:14;;;;;;;4.40;2.80;;;15.60;99.90;;;;;;5055705;28;20833;-79
2022/06/21 06:05:42;;;;;;;4.30;1.97;;;15.40;99.90;;;;;;5054156;28;20567;-79
2022/06/21 06:08:12;;;;;;;4.20;2.33;;;15.50;99.90;;;;;;5044355;28;20572;-81
2022/06/21 06:11:00;;;;;;;11.20;3.00;;;15.50;99.90;;;;;;5047080;28;20496;-79
2022/06/21 06:13:30;;;;;;;6.43;3.23;;;15.50;99.90;;;;;;5049931;28;20855;-80
2022/06/21 06:16:01;;;;;;;7.90;2.47;;;15.60;99.90;;;;;;5044095;28;20444;-78
2022/06/21 06:18:38;;;;;;;9.20;2.50;;;15.80;99.90;;;;;;5046152;28;21075;-77
2022/06/21 06:21:13;;;;;;;6.07;2.80;;;16.00;99.90;;;;;;5042735;28;20458;-78
2022/06/21 06:23:45;;;;;;;7.00;3.50;;;16.10;99.90;;;;;;5038030;28;20649;-78
2022/06/21 06:26:14;;;;;;;10.33;3.93;;;16.10;99.90;;;;;;5043153;28;20490;-79
2022/06/21 06:28:47;;;;;;;6.73;3.43;;;16.20;99.90;;;;;;5047686;28;20471;-81
2022/06/21 06:31:20;;;;;;;5.23;3.90;;;16.20;99.90;;;;;;5048604;28;20541;-80
2022/06/21 06:33:52;;;;;;;10.23;3.50;;;16.30;99.90;;;;;;5048233;28;20534;-80
2022/06/21 06:36:22;;;;;;;9.57;4.30;;;16.30;99.90;;;;;;5046886;28;21021;-82
2022/06/21 06:38:50;;;;;;;6.90;3.17;;;16.40;99.90;;;;;;5048438;28;20490;-81
2022/06/21 06:41:26;;;;;;;6.00;3.00;;;16.40;99.90;;;;;;5046253;28;20538;-80
2022/06/21 06:43:57;;;;;;;8.93;4.10;;;16.60;99.90;;;;;;5043414;28;20818;-82
2022/06/21 06:46:31;;;;;;;5.00;2.80;;;16.60;99.90;;;;;;5050764;28;20611;-79
2022/06/21 06:49:08;;;;;;;5.73;2.40;;;16.70;99.90;;;;;;5050835;28;20517;-81
2022/06/21 06:51:45;;;;;;;6.67;2.90;;;16.80;99.90;;;;;;5054704;28;20542;-82
2022/06/21 06:54:24;;;;;;;4.80;2.23;;;16.80;99.90;;;;;;5054372;28;20502;-80
2022/06/21 06:57:03;;;;;;;3.40;1.90;;;16.90;99.90;;;;;;5050990;28;20444;-79
2022/06/21 06:59:30;;;;;;;5.53;2.50;;;17.00;99.90;;;;;;5051947;28;20478;-80
2022/06/21 07:02:04;;;;;;;9.40;2.57;;;17.00;99.90;;;;;;5048205;28;20527;-80
2022/06/21 07:04:36;;;;;;;5.90;2.33;;;16.90;99.90;;;;;;5049374;28;20577;-81
2022/06/21 07:07:08;;;;;;;4.00;1.60;;;16.90;99.90;;;;;;5056503;28;20538;-81
2022/06/21 07:09:41;;;;;;;5.47;1.77;;;17.10;99.90;;;;;;5052881;28;20483;-79
2022/06/21 07:12:23;;;;;;;5.53;1.67;;;17.10;99.90;;;;;;5050647;28;20487;-80
2022/06/21 07:14:51;;;;;;;4.80;1.87;;;17.00;99.90;;;;;;5049534;28;20460;-80
2022/06/21 07:17:26;;;;;;;5.53;1.90;;;17.10;99.90;;;;;;5048148;28;20534;-80
2022/06/21 07:19:54;;;;;;;4.20;1.70;;;17.10;99.90;;;;;;5053575;28;20507;-83
2022/06/21 07:22:28;;;;;;;5.07;1.60;;;17.30;99.90;;;;;;5054715;28;20490;-82
2022/06/21 07:25:02;;;;;;;6.60;1.83;;;17.40;99.90;;;;;;5056055;28;20635;-79
2022/06/21 07:27:33;;;;;;;4.43;1.40;;;17.40;99.90;;;;;;5058857;28;20503;-80
2022/06/21 07:30:03;;;;;;;6.73;1.50;;;17.50;99.90;;;;;;5062736;28;20485;-79
2022/06/21 07:32:37;;;;;;;3.70;1.90;;;17.50;99.90;;;;;;5054552;28;20482;-80
2022/06/21 07:35:08;;;;;;;6.67;2.00;;;17.70;99.90;;;;;;5054501;28;20475;-83
2022/06/21 07:37:41;;;;;;;4.07;1.23;;;17.70;99.90;;;;;;5050488;28;20469;-80
2022/06/21 07:40:13;;;;;;;6.93;1.57;;;18.00;99.90;;;;;;5053431;28;20458;-83
2022/06/21 07:42:44;;;;;;;5.27;1.70;;;18.10;99.90;;;;;;5053631;28;21018;-83
2022/06/21 07:45:17;;;;;;;5.03;1.60;;;18.20;99.90;;;;;;5054420;28;20505;-82
2022/06/21 07:47:52;;;;;;;6.37;1.90;;;18.10;99.90;;;;;;5054769;28;20485;-82
2022/06/21 07:50:23;;;;;;;3.70;1.57;;;18.20;99.90;;;;;;5054350;28;21034;-80
2022/06/21 07:52:52;;;;;;;4.73;1.87;;;18.10;99.90;;;;;;5053577;28;20460;-80
2022/06/21 07:55:26;;;;;;;4.60;1.77;;;18.10;99.90;;;;;;5054127;28;20537;-78
2022/06/21 07:58:05;;;;;;;6.23;2.77;;;18.30;99.90;;;;;;5052650;28;21064;-79
2022/06/21 08:09:01;;;;;;;5.27;1.70;;;20.10;99.90;;;;;;5043819;28;20456;-85
2022/06/21 08:11:37;;;;;;;3.60;1.50;;;20.20;99.90;;;;;;5051105;28;20456;-81
2022/06/21 08:14:04;;;;;;;5.00;2.27;;;20.60;99.90;;;;;;5056323;28;20473;-82
2022/06/21 08:16:36;;;;;;;7.13;2.33;;;20.80;99.90;;;;;;5049982;28;20478;-82
2022/06/21 08:19:12;;;;;;;8.40;3.47;;;20.90;99.90;;;;;;5037070;28;20497;-82
2022/06/21 08:21:45;;;;;;;6.40;2.07;;;21.10;99.90;;;;;;5050418;28;20443;-82
2022/06/21 08:24:17;;;;;;;5.50;1.80;;;21.10;99.90;;;;;;5037035;28;20507;-82
2022/06/21 08:26:49;;;;;;;7.87;3.03;;;21.20;99.90;;;;;;5050351;28;20503;-80
2022/06/21 08:29:22;;;;;;;3.83;2.00;;;21.40;99.90;;;;;;5056989;28;20492;-81
2022/06/21 08:31:56;;;;;;;5.10;2.25;;;21.60;99.90;;;;;;5053692;28;20967;-81
2022/06/21 08:34:31;;;;;;;5.13;1.90;;;21.60;99.90;;;;;;5051541;28;20670;-83
2022/06/21 08:37:03;;;;;;;4.43;1.90;;;21.70;99.90;;;;;;5054703;28;20535;-83
2022/06/21 08:39:36;;;;;;;3.87;1.63;;;21.50;99.90;;;;;;5051521;28;20566;-82
2022/06/21 08:42:40;;;;;;;5.43;2.10;;;21.70;99.90;;;;;;5054038;28;20483;-82
2022/06/21 08:45:46;;;;;;;5.13;1.60;;;21.60;99.90;;;;;;5031824;28;20538;-81
2022/06/21 08:48:41;;;;;;;3.90;1.50;;;21.80;99.90;;;;;;5041994;28;20484;-82
2022/06/21 08:52:04;;;;;;;3.53;1.53;;;21.60;99.90;;;;;;5043410;28;20491;-85
2022/06/21 08:54:42;;;;;;;7.63;1.60;;;21.50;99.90;;;;;;5014748;28;20528;-83
2022/06/21 08:57:18;;;;;;;6.50;1.83;;;21.50;99.90;;;;;;5057077;28;20444;-81
2022/06/21 08:59:59;;;;;;;4.07;1.60;;;21.70;99.90;;;;;;5055328;28;20478;-82
2022/06/21 09:02:56;;;;;;;3.33;1.27;;;21.60;99.90;;;;;;5046218;28;20535;-81
2022/06/21 09:05:43;;;;;;;4.97;1.40;;;21.80;99.90;;;;;;5048877;28;20496;-83
2022/06/21 09:08:38;;;;;;;4.03;1.57;;;21.70;99.90;;;;;;5057840;28;20549;-85
2022/06/21 09:11:15;;;;;;;5.07;1.40;;;21.90;99.90;;;;;;5062110;28;20444;-80
2022/06/21 09:13:56;;;;;;;5.60;1.33;;;22.20;99.90;;;;;;5056113;28;20446;-80
2022/06/21 09:16:32;;;;;;;4.83;2.10;;;22.60;99.90;;;;;;5050432;28;20939;-81
2022/06/21 09:19:11;;;;;;;4.07;1.40;;;22.90;99.90;;;;;;5050151;28;20517;-82
2022/06/21 09:21:48;;;;;;;4.03;1.70;;;23.20;99.90;;;;;;5051875;28;20458;-82
2022/06/21 09:24:28;;;;;;;3.13;1.20;;;23.30;99.90;;;;;;5039586;28;20528;-83
2022/06/21 09:27:04;;;;;;;4.13;1.40;;;23.70;99.90;;;;;;5039920;28;20516;-81
2022/06/21 09:29:34;;;;;;;3.73;1.37;;;24.00;99.90;;;;;;5050900;28;20477;-85
2022/06/21 09:32:16;;;;;;;3.37;1.30;;;24.10;99.90;;;;;;5055125;28;20452;-87
2022/06/21 09:34:56;;;;;;;2.80;1.23;;;24.10;99.90;;;;;;5061324;28;20470;-83
2022/06/21 09:37:46;;;;;;;4.87;1.50;;;24.30;99.90;;;;;;5053183;28;20451;-82
2022/06/21 09:40:21;;;;;;;6.20;1.90;;;23.80;99.90;;;;;;5048051;28;21226;-85
2022/06/21 09:42:59;;;;;;;5.73;1.40;;;23.80;99.90;;;;;;5051696;28;20515;-79
2022/06/21 09:45:33;;;;;;;2.50;1.20;;;24.00;99.90;;;;;;5033059;28;20573;-79
2022/06/21 09:48:08;;;;;;;6.30;1.57;;;23.80;99.90;;;;;;5035015;28;20514;-77
2022/06/21 09:50:46;;;;;;;3.57;1.30;;;24.10;99.90;;;;;;5033446;28;20484;-78
2022/06/21 09:53:22;;;;;;;5.87;1.90;;;24.30;99.90;;;;;;5045941;28;20542;-79
2022/06/21 09:55:59;;;;;;;3.57;1.70;;;24.40;99.90;;;;;;5046173;28;20538;-80
2022/06/21 09:58:33;;;;;;;4.07;1.33;;;24.40;99.90;;;;;;5041365;28;21017;-78
2022/06/21 10:01:07;;;;;;;3.83;1.70;;;24.70;99.90;;;;;;5045854;28;20475;-79
2022/06/21 10:03:43;;;;;;;6.70;1.80;;;24.60;99.90;;;;;;5047814;28;21050;-79
2022/06/21 10:06:18;;;;;;;3.40;1.63;;;24.50;99.90;;;;;;5031187;28;20484;-77
2022/06/21 10:08:59;;;;;;;4.07;2.50;;;24.30;99.90;;;;;;5037453;28;20471;-78
2022/06/21 10:11:37;;;;;;;3.50;1.07;;;24.50;99.90;;;;;;5034250;28;20893;-79
2022/06/21 10:14:37;;;;;;;5.10;1.40;;;24.60;99.90;;;;;;5044151;28;20585;-79
2022/06/21 10:17:38;;;;;;;3.50;1.40;;;24.70;99.90;;;;;;5015424;28;20562;-79
2022/06/21 10:20:21;;;;;;;5.20;1.40;;;24.40;99.90;;;;;;5035421;28;20571;-78
2022/06/21 10:23:01;;;;;;;3.30;1.40;;;24.20;99.90;;;;;;5043426;28;20542;-81
2022/06/21 10:25:54;;;;;;;3.33;1.10;;;24.30;99.90;;;;;;5046974;28;20483;-78
2022/06/21 10:28:41;;;;;;;4.10;1.57;;;24.40;99.90;;;;;;5052178;28;20475;-82
2022/06/21 10:31:24;;;;;;;7.30;1.60;;;24.30;99.90;;;;;;5047563;28;20456;-78
2022/06/21 10:34:18;;;;;;;4.20;1.40;;;24.20;99.90;;;;;;5053198;28;20494;-80
2022/06/21 10:37:03;;;;;;;5.57;1.53;;;24.60;99.90;;;;;;5042606;28;20456;-80
2022/06/21 10:39:57;;;;;;;5.50;2.07;;;24.60;99.90;;;;;;5046362;28;20464;-80
2022/06/21 10:42:50;;;;;;;5.27;1.47;;;25.00;99.90;;;;;;5048341;28;20458;-79
2022/06/21 10:45:41;;;;;;;5.87;2.13;;;25.50;99.90;;;;;;5050168;28;20951;-79
2022/06/21 10:48:47;;;;;;;3.87;1.47;;;25.50;99.90;;;;;;5046944;28;20555;-79
2022/06/21 10:51:24;;;;;;;6.23;1.33;;;24.90;99.90;;;;;;5043747;28;20448;-79
2022/06/21 10:54:31;;;;;;;3.03;1.07;;;24.50;99.90;;;;;;5048062;28;20455;-81
2022/06/21 10:57:11;;;;;;;2.77;1.30;;;24.40;99.90;;;;;;5046773;28;20459;-78
2022/06/21 11:03:14;;;;;;;4.30;1.73;;;25.10;99.90;;;;;;5050261;28;20450;-81
2022/06/21 11:05:50;;;;;;;3.73;1.33;;;25.90;99.90;;;;;;5051819;28;20476;-79
2022/06/21 11:08:30;;;;;;;12.47;2.53;;;26.50;99.90;;;;;;5054627;28;21084;-79
2022/06/21 11:11:03;;;;;;;4.87;1.60;;;26.40;99.90;;;;;;5046906;28;20471;-81
2022/06/21 11:13:35;;;;;;;5.43;1.90;;;26.80;99.90;;;;;;5052157;28;20444;-78
2022/06/21 11:16:08;;;;;;;4.30;1.90;;;26.90;99.90;;;;;;5053437;28;20444;-80
2022/06/21 11:18:50;;;;;;;4.57;1.50;;;26.90;99.90;;;;;;5053239;28;20509;-80
2022/06/21 11:21:36;;;;;;;4.23;1.50;;;26.70;99.90;;;;;;5039330;28;20539;-79
2022/06/21 11:24:14;;;;;;;4.93;1.70;;;26.70;99.90;;;;;;5052285;28;20455;-81
2022/06/21 11:26:51;;;;;;;2.80;1.30;;;27.20;99.90;;;;;;5052273;28;21007;-81
2022/06/21 11:29:27;;;;;;;4.00;1.57;;;27.30;99.90;;;;;;5045232;28;20482;-81
2022/06/21 11:32:01;;;;;;;4.47;2.43;;;27.40;99.90;;;;;;5049852;28;20460;-79
2022/06/21 11:34:40;;;;;;;4.77;2.10;;;27.40;99.90;;;;;;5051895;28;20452;-81
2022/06/21 11:37:22;;;;;;;5.17;1.43;;;26.90;97.70;;;;;;5048315;28;21067;-79
2022/06/21 11:39:55;;;;;;;4.17;1.83;;;26.50;99.90;;;;;;5041710;28;21011;-78
2022/06/21 11:42:26;;;;;;;4.10;1.40;;;25.90;98.80;;;;;;5051192;28;20869;-80
2022/06/21 11:45:19;;;;;;;3.17;1.37;;;25.80;99.90;;;;;;5046466;28;20488;-79
2022/06/21 11:48:01;;;;;;;3.10;1.40;;;25.60;99.90;;;;;;5039384;28;20508;-79
2022/06/21 11:50:39;;;;;;;2.30;1.37;;;25.90;99.90;;;;;;5048845;28;20978;-81
2022/06/21 11:53:36;;;;;;;4.40;2.00;;;26.00;99.90;;;;;;5049753;28;20455;-80
2022/06/21 11:56:09;;;;;;;2.80;1.70;;;26.20;99.90;;;;;;5054070;28;21169;-81
2022/06/21 11:58:41;;;;;;;5.47;1.77;;;26.10;99.90;;;;;;5056029;28;21051;-80
2022/06/21 12:01:17;;;;;;;4.23;1.60;;;26.00;99.90;;;;;;5050778;28;20455;-79
2022/06/21 12:03:57;;;;;;;5.03;1.37;;;25.70;99.90;;;;;;5057565;28;20936;-80
2022/06/21 12:06:33;;;;;;;4.13;1.40;;;25.60;99.90;;;;;;5058160;28;20511;-80
2022/06/21 12:09:09;;;;;;;5.53;1.70;;;25.20;99.90;;;;;;5057217;28;20503;-81
2022/06/21 12:11:48;;;;;;;3.43;1.30;;;25.10;99.90;;;;;;5053901;28;20466;-81
2022/06/21 12:14:34;;;;;;;3.13;1.40;;;24.90;99.90;;;;;;5051298;28;20482;-80
2022/06/21 12:17:16;;;;;;;2.93;1.27;;;24.70;99.90;;;;;;5049853;28;20484;-81
2022/06/21 12:19:46;;;;;;;4.77;1.37;;;24.70;99.90;;;;;;5045426;28;20492;-81
2022/06/21 12:22:24;;;;;;;2.87;1.20;;;24.60;99.90;;;;;;5050007;28;20523;-81
2022/06/21 12:24:51;;;;;;;4.57;1.90;;;24.40;99.90;;;;;;5044896;28;21242;-81
2022/06/21 12:27:19;;;;;;;5.07;1.53;;;24.30;99.90;;;;;;5047153;28;20514;-80
2022/06/21 12:29:48;;;;;;;2.93;1.30;;;24.00;99.90;;;;;;5052231;28;20464;-80
2022/06/21 12:32:21;;;;;;;4.90;1.60;;;23.90;99.90;;;;;;5054397;28;20970;-81
2022/06/21 12:35:01;;;;;;;5.73;1.80;;;24.00;99.90;;;;;;5054552;28;20484;-81
2022/06/21 12:37:34;;;;;;;5.87;1.40;;;23.90;99.90;;;;;;5046784;28;20828;-80
2022/06/21 12:40:29;;;;;;;3.03;1.23;;;23.90;99.90;;;;;;5043674;28;20494;-82
2022/06/21 12:43:06;;;;;;;2.33;0.97;;;24.00;99.90;;;;;;5041249;28;20457;-79
2022/06/21 12:45:56;;;;;;;8.53;1.80;;;24.50;99.90;;;;;;5051498;28;20462;-83
2022/06/21 12:48:41;;;;;;;2.70;1.23;;;25.40;99.90;;;;;;5044778;28;20492;-80
2022/06/21 12:51:16;;;;;;;3.30;1.37;;;26.50;99.90;;;;;;5043770;28;20515;-81
2022/06/21 12:53:57;;;;;;;4.30;1.20;;;27.10;99.90;;;;;;5044199;28;20452;-80
2022/06/21 12:56:35;;;;;;;4.40;1.40;;;27.60;99.90;;;;;;5052042;28;20508;-81
2022/06/21 12:59:22;;;;;;;2.90;1.47;;;27.80;99.90;;;;;;5050748;28;20487;-81
2022/06/21 13:01:58;;;;;;;4.70;1.70;;;27.90;99.90;;;;;;5050232;28;20492;-79
2022/06/21 13:04:52;;;;;;;4.00;1.67;;;27.60;97.20;;;;;;5044631;28;20466;-78
2022/06/21 13:07:35;;;;;;;4.60;2.87;;;28.00;99.20;;;;;;5047299;28;20480;-80
2022/06/21 13:10:27;;;;;;;3.03;1.30;;;28.30;98.40;;;;;;5055242;28;20480;-80
2022/06/21 13:13:09;;;;;;;5.10;1.83;;;28.40;98.90;;;;;;5059570;28;20508;-82
2022/06/21 13:15:54;;;;;;;6.90;1.83;;;28.50;98.10;;;;;;5057368;28;20543;-81
2022/06/21 13:18:53;;;;;;;4.07;1.67;;;28.90;97.10;;;;;;5052108;28;20496;-85
2022/06/21 13:21:34;;;;;;;6.67;1.40;;;28.60;95.20;;;;;;5045121;28;20448;-85
2022/06/21 13:24:18;;;;;;;3.30;1.40;;;28.40;93.40;;;;;;5042051;28;20449;-83
2022/06/21 13:27:09;;;;;;;3.10;1.37;;;28.00;96.40;;;;;;5066356;28;20498;-80
2022/06/21 13:29:47;;;;;;;2.73;1.17;;;27.70;93.20;;;;;;5061941;28;20579;-80
2022/06/21 13:32:20;;;;;;;9.87;2.17;;;27.40;94.20;;;;;;5067167;28;20459;-79
2022/06/21 13:34:51;;;;;;;3.97;1.40;;;27.10;92.30;;;;;;5067289;28;20463;-79
2022/06/21 13:37:23;;;;;;;3.40;1.43;;;27.10;92.70;;;;;;5053485;28;20445;-85
2022/06/21 13:39:58;;;;;;;3.63;1.27;;;27.10;93.30;;;;;;5068541;28;20471;-84
2022/06/21 13:42:38;;;;;;;3.17;1.43;;;27.30;92.00;;;;;;5073368;28;20487;-82